createdAt,value
2023-03-24T00:01:05.687Z,1.58
2023-03-24T00:03:32.963Z,1.73
2023-03-24T00:06:02.444Z,1.92
2023-03-24T00:08:30.721Z,1.65
2023-03-24T00:11:03.275Z,1.63
2023-03-24T00:13:32.147Z,1.27
2023-03-24T00:15:59.442Z,1.38
2023-03-24T00:18:26.088Z,1.67
2023-03-24T00:20:58.643Z,1.98
2023-03-24T00:23:27.981Z,1.70
2023-03-24T00:26:12.302Z,1.60
2023-03-24T00:31:08.667Z,1.70
2023-03-24T00:33:36.576Z,2.08
2023-03-24T00:36:06.864Z,1.42
2023-03-24T00:38:34.548Z,1.85
2023-03-24T00:41:02.100Z,1.58
2023-03-24T00:43:29.825Z,2.00
2023-03-24T00:46:01.888Z,2.05
2023-03-24T00:48:29.770Z,1.80
2023-03-24T00:50:56.966Z,1.85
2023-03-24T00:53:25.824Z,1.33
2023-03-24T00:55:52.388Z,1.85
2023-03-24T00:58:19.764Z,2.38
2023-03-24T01:00:48.393Z,1.92
2023-03-24T01:03:16.585Z,2.58
2023-03-24T01:05:48.254Z,1.60
2023-03-24T01:08:20.364Z,2.10
2023-03-24T01:10:50.523Z,1.48
2023-03-24T01:13:18.135Z,1.80
2023-03-24T01:15:47.763Z,1.88
2023-03-24T01:18:15.285Z,1.92
2023-03-24T01:20:45.702Z,1.80
2023-03-24T01:23:14.954Z,2.25
2023-03-24T01:25:45.328Z,1.85
2023-03-24T01:28:12.985Z,1.73
2023-03-24T01:30:40.477Z,1.67
2023-03-24T01:33:08.551Z,2.75
2023-03-24T01:35:35.387Z,1.48
2023-03-24T01:38:07.286Z,1.90
2023-03-24T01:40:36.329Z,1.60
2023-03-24T01:43:04.552Z,1.98
2023-03-24T01:45:40.481Z,1.58
2023-03-24T01:48:28.422Z,2.55
2023-03-24T01:51:21.354Z,1.55
2023-03-24T01:53:52.311Z,1.85
2023-03-24T01:56:19.555Z,1.73
2023-03-24T01:58:52.206Z,2.15
2023-03-24T02:01:30.025Z,1.88
2023-03-24T02:04:11.283Z,2.55
2023-03-24T02:06:43.822Z,1.75
2023-03-24T02:09:12.721Z,2.17
2023-03-24T02:11:41.145Z,1.65
2023-03-24T02:14:09.407Z,1.52
2023-03-24T02:17:08.584Z,2.13
2023-03-24T02:20:05.851Z,2.67
2023-03-24T02:23:29.911Z,1.77
2023-03-24T02:26:24.212Z,2.03
2023-03-24T02:29:07.356Z,1.50
2023-03-24T02:31:46.478Z,1.77
2023-03-24T02:34:33.332Z,1.63
2023-03-24T02:37:27.672Z,1.55
2023-03-24T02:40:03.226Z,1.40
2023-03-24T02:42:41.881Z,2.35
2023-03-24T02:45:36.297Z,1.85
2023-03-24T02:50:53.657Z,1.98
2023-03-24T02:53:54.006Z,2.05
2023-03-24T02:56:43.703Z,1.50
2023-03-24T02:59:43.793Z,1.70
2023-03-24T03:02:44.670Z,1.63
2023-03-24T03:05:30.837Z,1.73
2023-03-24T03:08:01.411Z,2.72
2023-03-24T03:10:34.251Z,2.00
2023-03-24T03:13:07.168Z,1.73
2023-03-24T03:15:42.888Z,1.88
2023-03-24T03:18:18.718Z,2.00
2023-03-24T03:20:53.187Z,1.75
2023-03-24T03:23:29.186Z,1.70
2023-03-24T03:26:05.957Z,1.50
2023-03-24T03:28:36.778Z,1.40
2023-03-24T03:31:08.628Z,1.65
2023-03-24T03:33:53.140Z,2.33
2023-03-24T03:36:29.391Z,1.50
2023-03-24T03:39:08.113Z,1.80
2023-03-24T03:41:34.812Z,1.60
2023-03-24T03:44:01.645Z,1.95
2023-03-24T03:46:28.642Z,1.83
2023-03-24T03:48:56.565Z,1.88
2023-03-24T03:51:23.348Z,1.92
2023-03-24T03:53:58.940Z,1.75
2023-03-24T03:56:33.736Z,2.05
2023-03-24T03:59:30.338Z,1.60
2023-03-24T04:01:58.815Z,2.08
2023-03-24T04:05:05.879Z,1.83
2023-03-24T04:08:18.148Z,1.92
2023-03-24T04:11:26.333Z,1.70
2023-03-24T04:14:57.526Z,2.03
2023-03-24T04:17:36.099Z,1.70
2023-03-24T04:20:12.476Z,1.65
2023-03-24T04:22:49.795Z,1.52
2023-03-24T04:25:49.766Z,1.70
2023-03-24T04:28:52.524Z,1.38
2023-03-24T04:31:41.948Z,1.77
2023-03-24T04:34:20.763Z,2.00
2023-03-24T04:37:04.085Z,1.52
2023-03-24T04:39:53.905Z,2.00
2023-03-24T04:42:26.547Z,1.90
2023-03-24T04:44:53.423Z,1.90
2023-03-24T04:47:26.780Z,1.92
2023-03-24T04:50:09.269Z,1.70
2023-03-24T04:52:35.990Z,2.35
2023-03-24T04:55:16.022Z,2.20
2023-03-24T04:57:43.247Z,2.53
2023-03-24T05:00:12.933Z,2.08
2023-03-24T05:02:40.631Z,1.90
2023-03-24T05:05:14.560Z,2.10
2023-03-24T05:07:47.224Z,2.55
2023-03-24T05:10:16.840Z,2.40
2023-03-24T05:12:49.601Z,2.38
2023-03-24T05:15:35.401Z,3.38
2023-03-24T05:18:19.942Z,2.78
2023-03-24T05:20:46.648Z,2.63
2023-03-24T05:23:19.419Z,2.75
2023-03-24T05:25:48.246Z,3.03
2023-03-24T05:28:16.370Z,2.78
2023-03-24T05:30:44.032Z,2.90
2023-03-24T05:33:36.557Z,2.88
2023-03-24T05:36:04.188Z,2.45
2023-03-24T05:38:32.932Z,2.80
2023-03-24T05:41:01.328Z,2.67
2023-03-24T05:43:34.071Z,2.45
2023-03-24T05:46:10.405Z,2.95
2023-03-24T05:48:37.439Z,2.78
2023-03-24T05:53:38.192Z,3.22
2023-03-24T05:56:25.075Z,3.40
2023-03-24T05:59:08.370Z,2.33
2023-03-24T06:01:58.414Z,2.88
2023-03-24T06:04:57.779Z,3.08
2023-03-24T06:07:26.793Z,3.50
2023-03-24T06:09:58.123Z,3.03
2023-03-24T06:12:25.452Z,2.60
2023-03-24T06:14:57.019Z,3.55
2023-03-24T06:17:24.749Z,3.15
2023-03-24T06:20:02.708Z,2.70
2023-03-24T06:22:42.602Z,2.33
2023-03-24T06:25:13.936Z,2.33
2023-03-24T06:27:48.918Z,2.33
2023-03-24T06:30:20.570Z,2.10
2023-03-24T06:32:47.274Z,1.90
2023-03-24T06:35:17.229Z,1.98
2023-03-24T06:38:03.072Z,1.98
2023-03-24T06:40:31.182Z,1.63
2023-03-24T06:42:58.617Z,1.83
2023-03-24T06:45:26.195Z,1.98
2023-03-24T06:47:57.262Z,1.83
2023-03-24T06:50:26.992Z,1.90
2023-03-24T06:52:55.269Z,1.75
2023-03-24T06:55:22.781Z,1.52
2023-03-24T06:57:52.092Z,1.52
2023-03-24T11:31:59.429Z,0.60
2023-03-24T11:34:34.452Z,0.38
2023-03-24T11:37:23.032Z,0.60
2023-03-24T11:40:25.880Z,0.40
2023-03-24T11:43:00.077Z,0.30
2023-03-24T11:45:28.539Z,0.70
2023-03-24T11:47:59.589Z,0.63
2023-03-24T11:50:34.438Z,0.73
2023-03-24T11:53:07.710Z,0.50
2023-03-24T11:55:57.333Z,0.65
2023-03-24T11:58:35.495Z,0.30
2023-03-24T12:01:20.594Z,0.50
2023-03-24T12:04:07.711Z,0.32
2023-03-24T12:06:52.457Z,0.55
2023-03-24T12:09:32.614Z,0.38
2023-03-24T12:12:17.417Z,0.50
2023-03-24T12:15:06.435Z,0.50
2023-03-24T12:17:41.685Z,0.57
2023-03-24T12:20:22.731Z,0.40
2023-03-24T12:23:06.292Z,0.60
2023-03-24T12:25:51.753Z,0.30
2023-03-24T12:28:24.431Z,0.40
2023-03-24T12:31:38.875Z,0.30
2023-03-24T12:34:52.787Z,0.30
2023-03-24T12:37:39.104Z,0.68
2023-03-24T12:40:12.935Z,0.40
2023-03-24T12:45:29.127Z,0.47
2023-03-24T12:48:34.383Z,0.40
2023-03-24T12:51:24.992Z,0.35
2023-03-24T12:54:29.986Z,0.20
2023-03-24T12:57:14.405Z,0.43
2023-03-24T12:59:57.321Z,0.35
2023-03-24T13:02:38.869Z,0.20
2023-03-24T13:05:08.956Z,0.35
2023-03-24T13:07:43.735Z,0.30
2023-03-24T13:10:22.959Z,1.02
2023-03-24T13:13:22.428Z,0.52
2023-03-24T13:16:01.259Z,0.28
2023-03-24T13:18:51.554Z,0.32
2023-03-24T13:21:20.814Z,0.40
2023-03-24T13:24:08.012Z,0.40
2023-03-24T13:27:09.475Z,0.57
2023-03-24T13:29:48.948Z,0.43
2023-03-24T13:32:25.605Z,0.40
2023-03-24T13:35:04.406Z,0.38
2023-03-24T13:37:53.656Z,0.30
2023-03-24T13:40:26.896Z,0.30
2023-03-24T13:43:07.664Z,0.65
2023-03-24T13:46:06.339Z,0.38
2023-03-24T13:48:51.392Z,0.40
2023-03-24T13:51:27.636Z,0.43
2023-03-24T13:53:59.963Z,1.05
2023-03-24T13:56:37.157Z,1.33
2023-03-24T13:59:11.955Z,0.80
2023-03-24T14:01:49.735Z,0.40
2023-03-24T14:04:25.474Z,0.52
2023-03-24T14:06:55.673Z,0.40
2023-03-24T14:09:28.178Z,0.65
2023-03-24T14:11:55.014Z,0.30
2023-03-24T14:14:24.618Z,1.08
2023-03-24T14:17:13.590Z,0.57
2023-03-24T14:20:07.871Z,0.85
2023-03-24T14:22:39.681Z,0.60
2023-03-24T14:25:22.031Z,0.52
2023-03-24T14:27:51.401Z,0.50
2023-03-24T14:30:21.620Z,0.70
2023-03-24T14:33:00.466Z,0.30
2023-03-24T14:35:32.125Z,0.70
2023-03-24T14:38:23.971Z,0.80
2023-03-24T14:40:56.483Z,0.98
2023-03-24T14:43:49.888Z,0.50
2023-03-24T14:46:19.457Z,0.60
2023-03-24T14:49:04.205Z,0.65
2023-03-24T14:51:39.919Z,0.40
2023-03-24T14:54:36.938Z,0.88
2023-03-24T14:57:04.971Z,0.50
2023-03-24T14:59:49.952Z,0.52
2023-03-24T15:02:25.534Z,0.60
2023-03-24T15:05:29.679Z,0.60
2023-03-24T15:08:10.524Z,0.30
2023-03-24T15:10:50.952Z,0.52
2023-03-24T15:13:48.649Z,1.98
2023-03-24T15:16:15.414Z,0.35
2023-03-24T15:19:00.675Z,0.60
2023-03-24T15:21:42.087Z,0.57
2023-03-24T15:24:20.982Z,0.60
2023-03-24T15:26:48.943Z,0.32
2023-03-24T15:29:15.591Z,0.47
2023-03-24T15:31:42.677Z,0.40
2023-03-24T15:34:40.069Z,0.22
2023-03-24T15:37:20.695Z,0.65
2023-03-24T15:39:53.871Z,0.30
2023-03-24T15:42:25.477Z,0.45
2023-03-24T15:44:54.018Z,0.50
2023-03-24T15:47:24.747Z,0.77
2023-03-24T15:50:02.782Z,0.88
2023-03-24T15:52:39.607Z,0.70
2023-03-24T15:55:26.223Z,1.10
2023-03-24T15:57:56.215Z,0.70
2023-03-24T16:00:29.054Z,1.25
2023-03-24T16:02:57.969Z,0.80
2023-03-24T16:05:32.431Z,0.60
2023-03-24T16:08:06.231Z,0.60
2023-03-24T16:10:39.859Z,0.65
2023-03-24T16:13:21.456Z,0.82
2023-03-24T16:16:01.151Z,0.73
2023-03-24T16:18:36.264Z,0.85
2023-03-24T16:21:18.129Z,0.47
2023-03-24T16:23:45.527Z,0.80
2023-03-24T16:26:24.280Z,0.80
2023-03-24T16:28:52.234Z,0.65
2023-03-24T16:31:25.111Z,0.68
2023-03-24T16:33:52.701Z,1.00
2023-03-24T16:36:22.216Z,1.08
2023-03-24T16:38:53.679Z,0.50
2023-03-24T16:41:20.892Z,0.55
2023-03-24T16:43:47.679Z,0.70
2023-03-24T16:46:26.532Z,0.63
2023-03-24T16:48:53.715Z,1.25
2023-03-24T16:51:20.335Z,0.90
2023-03-24T16:53:47.297Z,1.40
2023-03-24T16:56:16.756Z,0.75
2023-03-24T16:58:43.530Z,0.70
2023-03-24T17:01:27.700Z,0.70
2023-03-24T17:03:55.796Z,0.60
2023-03-24T17:06:23.437Z,0.60
2023-03-24T17:08:50.228Z,0.68
2023-03-24T17:11:24.016Z,0.52
2023-03-24T17:13:51.323Z,0.80
2023-03-24T17:16:17.912Z,0.52
2023-03-24T17:18:44.560Z,0.80
2023-03-24T17:21:16.601Z,0.52
2023-03-24T17:23:46.729Z,0.50
2023-03-24T17:26:13.321Z,0.90
2023-03-24T17:28:40.235Z,0.50
2023-03-24T17:31:06.988Z,0.70
2023-03-24T17:33:33.668Z,0.50
2023-03-24T17:36:00.825Z,0.73
2023-03-24T17:38:27.855Z,0.75
2023-03-24T17:41:03.161Z,0.75
2023-03-24T17:43:30.447Z,0.82
2023-03-24T17:46:01.511Z,0.75
2023-03-24T17:48:29.091Z,0.63
2023-03-24T17:50:56.965Z,0.60
2023-03-24T17:53:32.052Z,1.13
2023-03-24T17:56:02.158Z,0.98
2023-03-24T17:58:29.309Z,0.63
2023-03-24T18:01:08.516Z,0.82
2023-03-24T18:03:37.872Z,0.80
2023-03-24T18:06:10.412Z,0.38
2023-03-24T18:08:38.435Z,0.65
2023-03-24T18:11:10.947Z,0.60
2023-03-24T18:14:02.434Z,0.80
2023-03-24T18:16:35.085Z,0.60
2023-03-24T18:19:02.445Z,0.85
2023-03-24T18:21:29.184Z,0.88
2023-03-24T18:23:56.256Z,0.85
2023-03-24T18:26:23.317Z,1.42
2023-03-24T18:28:49.914Z,1.10
2023-03-24T18:31:20.108Z,0.70
2023-03-24T18:33:48.396Z,1.00
2023-03-24T18:36:26.262Z,1.83
2023-03-24T18:39:04.280Z,1.35
2023-03-24T18:41:30.943Z,3.72
2023-03-24T18:43:59.349Z,35.13
2023-03-24T18:46:27.192Z,21.77
2023-03-24T18:48:54.742Z,7.40
2023-03-24T18:51:22.751Z,3.00
2023-03-24T18:53:50.032Z,0.70
2023-03-24T18:56:18.789Z,2.53
2023-03-24T19:03:41.213Z,1.10
2023-03-24T19:09:59.818Z,1.08
2023-03-24T19:12:26.444Z,1.08
2023-03-24T19:15:01.603Z,0.45
2023-03-24T19:17:28.642Z,1.75
2023-03-24T19:19:59.199Z,1.45
2023-03-24T19:22:28.809Z,0.82
2023-03-24T19:24:55.953Z,0.40
2023-03-24T19:27:23.476Z,0.50
2023-03-24T19:30:29.542Z,0.50
2023-03-24T19:32:57.118Z,1.20
2023-03-24T19:35:30.380Z,1.23
2023-03-24T19:37:57.242Z,0.60
2023-03-24T19:40:23.841Z,0.82
2023-03-24T19:42:51.931Z,1.23
2023-03-24T19:45:20.204Z,1.00
2023-03-24T19:47:47.073Z,1.00
2023-03-24T19:50:22.520Z,1.25
2023-03-24T19:52:55.619Z,1.40
2023-03-24T19:55:31.554Z,2.00
2023-03-24T19:57:59.607Z,1.88
2023-03-24T20:00:36.253Z,1.25
2023-03-24T20:03:06.435Z,1.60
2023-03-24T20:05:34.621Z,3.53
2023-03-24T20:08:05.024Z,3.90
2023-03-24T20:10:40.166Z,1.52
2023-03-24T20:13:08.285Z,1.70
2023-03-24T20:15:37.420Z,2.03
2023-03-24T20:18:07.321Z,0.65
2023-03-24T20:20:37.014Z,1.00
2023-03-24T20:23:03.792Z,0.57
2023-03-24T20:25:30.885Z,0.60
2023-03-24T20:27:57.648Z,0.35
2023-03-24T20:30:28.769Z,0.20
2023-03-24T20:32:56.822Z,0.95
2023-03-24T20:35:25.831Z,0.70
2023-03-24T20:37:52.986Z,0.40
2023-03-24T20:40:20.808Z,0.98
2023-03-24T20:42:47.649Z,0.63
2023-03-24T20:45:34.175Z,1.02
2023-03-24T20:48:00.978Z,0.70
2023-03-24T20:50:27.766Z,0.60
2023-03-24T20:52:54.571Z,0.77
2023-03-24T20:55:21.653Z,0.50
2023-03-24T20:57:48.429Z,0.68
2023-03-24T21:00:15.709Z,0.40
2023-03-24T21:02:43.412Z,1.42
2023-03-24T21:05:10.562Z,0.88
2023-03-24T21:07:38.268Z,0.80
2023-03-24T21:10:06.542Z,0.50
2023-03-24T21:12:34.152Z,0.70
2023-03-24T21:15:01.411Z,0.75
2023-03-24T21:17:34.225Z,1.05
2023-03-24T21:20:10.179Z,0.57
2023-03-24T21:23:06.137Z,0.40
2023-03-24T21:25:33.551Z,0.85
2023-03-24T21:28:00.158Z,0.80
2023-03-24T21:30:28.093Z,0.32
2023-03-24T21:32:56.267Z,0.38
2023-03-24T21:35:23.628Z,0.65
2023-03-24T21:37:50.200Z,0.20
2023-03-24T21:40:19.123Z,0.57
2023-03-24T21:42:46.761Z,0.30
2023-03-24T21:45:16.937Z,0.40
2023-03-24T21:47:46.199Z,1.00
2023-03-24T21:50:18.811Z,0.70
2023-03-24T21:52:47.617Z,0.55
2023-03-24T21:55:15.862Z,0.77
2023-03-24T21:57:46.305Z,0.73
2023-03-24T22:00:15.676Z,0.50
2023-03-24T22:02:45.636Z,0.43
2023-03-24T22:05:13.951Z,0.63
2023-03-24T22:07:41.624Z,0.30
2023-03-24T22:10:10.614Z,0.35
2023-03-24T22:12:37.216Z,0.32
2023-03-24T22:15:04.110Z,0.30
2023-03-24T22:17:31.151Z,0.40
2023-03-24T22:19:57.934Z,0.40
2023-03-24T22:22:24.516Z,0.60
2023-03-24T22:24:51.254Z,0.40
2023-03-24T22:27:17.836Z,0.45
2023-03-24T22:29:44.564Z,0.73
2023-03-24T22:32:11.124Z,0.43
2023-03-24T22:34:37.787Z,0.38
2023-03-24T22:37:04.606Z,0.30
2023-03-24T22:39:31.873Z,0.47
2023-03-24T22:41:58.612Z,0.30
2023-03-24T22:44:25.307Z,0.50
2023-03-24T22:46:51.861Z,0.43
2023-03-24T22:49:18.511Z,0.45
2023-03-24T22:51:45.289Z,0.68
2023-03-24T22:54:11.868Z,0.32
2023-03-24T22:56:38.531Z,0.30
2023-03-24T22:59:07.115Z,0.40
2023-03-24T23:01:33.826Z,0.70
2023-03-24T23:04:00.675Z,0.82
2023-03-24T23:06:28.268Z,0.60
2023-03-24T23:08:55.799Z,0.40
2023-03-24T23:11:22.809Z,1.27
2023-03-24T23:13:50.390Z,0.63
2023-03-24T23:16:17.525Z,0.52
2023-03-24T23:18:44.603Z,0.30
2023-03-24T23:21:13.880Z,0.50
2023-03-24T23:23:41.382Z,0.68
2023-03-24T23:26:25.421Z,0.50
2023-03-24T23:28:53.350Z,0.52
2023-03-24T23:31:24.536Z,0.52
2023-03-24T23:33:54.461Z,0.32
2023-03-24T23:36:21.054Z,0.73
2023-03-24T23:38:50.558Z,0.60
2023-03-24T23:41:19.204Z,0.60
2023-03-24T23:43:50.941Z,0.32
2023-03-24T23:46:18.828Z,0.40
2023-03-24T23:48:45.830Z,0.50
2023-03-24T23:51:12.567Z,0.40
2023-03-24T23:53:39.290Z,0.40
2023-03-24T23:56:08.012Z,0.30
2023-03-24T23:58:37.405Z,0.63
